Time;durP1;ratioP1;P1;durP2;ratioP2;P2;SDS_P1;SDS_P2;PMS_P1;PMS_P2;Temp;Humidity;BMP_temperature;BMP_pressure;BME280_temperature;BME280_humidity;BME280_pressure;Samples;Min_cycle;Max_cycle;Signal;HPM_P1;HPM_P2
2023/08/28 00:01:42;;;;;;;6.10;2.77;;;16.50;1.00;;;;;;5010550;28;20642;-75
2023/08/28 00:04:08;;;;;;;4.63;2.90;;;;;;;;;;5010177;28;20190;-75
2023/08/28 00:06:34;;;;;;;3.33;3.00;;;;;;;;;;5008762;28;20206;-75
2023/08/28 00:08:59;;;;;;;7.90;3.10;;;16.60;1.00;;;;;;5011415;28;20182;-74
2023/08/28 00:11:25;;;;;;;6.83;3.17;;;16.60;1.00;;;;;;5008676;28;20205;-75
2023/08/28 00:13:50;;;;;;;3.17;2.87;;;16.70;1.00;;;;;;5010603;28;20186;-75
2023/08/28 00:16:16;;;;;;;5.50;3.37;;;16.70;1.00;;;;;;5010969;28;20225;-75
2023/08/28 00:18:41;;;;;;;8.83;3.27;;;;;;;;;;5009455;28;20248;-75
2023/08/28 00:21:07;;;;;;;5.50;3.17;;;16.60;1.00;;;;;;5010321;28;20198;-75
2023/08/28 00:23:33;;;;;;;5.27;3.20;;;16.60;1.00;;;;;;5010026;28;20194;-75
2023/08/28 00:25:59;;;;;;;3.77;2.57;;;16.50;1.00;;;;;;5010053;28;20206;-75
2023/08/28 00:28:25;;;;;;;5.50;3.10;;;16.50;1.00;;;;;;5009253;28;20178;-75
2023/08/28 00:30:51;;;;;;;3.67;2.70;;;16.50;1.00;;;;;;5008782;28;20447;-74
2023/08/28 00:33:16;;;;;;;7.43;3.20;;;16.50;1.00;;;;;;5009947;28;20265;-75
2023/08/28 00:35:42;;;;;;;4.40;3.00;;;;;;;;;;5010412;28;20181;-75
2023/08/28 00:38:09;;;;;;;4.03;2.70;;;16.50;1.00;;;;;;5007682;28;20183;-75
2023/08/28 00:40:41;;;;;;;4.00;2.70;;;16.40;1.00;;;;;;5010232;28;20717;-75
2023/08/28 00:43:08;;;;;;;9.03;3.47;;;16.50;1.00;;;;;;5009537;28;20468;-75
2023/08/28 00:45:38;;;;;;;7.43;3.57;;;16.50;1.00;;;;;;5008352;28;20974;-75
2023/08/28 00:48:03;;;;;;;5.90;3.27;;;16.50;1.00;;;;;;5009481;28;20970;-75
2023/08/28 00:50:29;;;;;;;4.93;2.77;;;;;;;;;;5009441;28;20446;-75
2023/08/28 00:52:55;;;;;;;4.50;3.57;;;16.40;1.00;;;;;;5011409;28;20179;-74
2023/08/28 00:55:20;;;;;;;7.00;3.73;;;16.30;1.00;;;;;;5009175;28;20220;-75
2023/08/28 00:57:46;;;;;;;6.80;3.80;;;16.20;1.00;;;;;;5009999;28;20344;-76
2023/08/28 01:00:12;;;;;;;7.33;3.60;;;;;;;;;;5006796;28;20194;-74
2023/08/28 01:02:41;;;;;;;10.40;3.83;;;16.10;1.00;;;;;;5008558;28;20703;-75
2023/08/28 01:05:07;;;;;;;10.13;3.40;;;16.10;1.00;;;;;;5009560;28;20439;-77
2023/08/28 01:07:49;;;;;;;6.23;3.60;;;16.10;1.00;;;;;;5007331;28;20555;-76
2023/08/28 01:10:28;;;;;;;6.70;3.80;;;16.00;1.00;;;;;;5009665;28;20439;-74
2023/08/28 01:13:09;;;;;;;7.20;4.10;;;16.10;1.00;;;;;;5009107;28;20448;-75
2023/08/28 01:15:36;;;;;;;8.70;4.03;;;16.10;1.00;;;;;;5005304;28;20488;-75
2023/08/28 01:18:04;;;;;;;7.63;3.47;;;16.00;1.00;;;;;;5001776;28;21049;-75
2023/08/28 01:20:31;;;;;;;10.00;3.73;;;16.00;1.00;;;;;;5008999;28;20994;-75
2023/08/28 01:23:11;;;;;;;5.20;3.93;;;16.10;1.00;;;;;;5009664;28;20441;-75
2023/08/28 01:25:37;;;;;;;6.30;3.70;;;;;;;;;;5003688;28;20622;-76
2023/08/28 01:28:03;;;;;;;6.30;3.50;;;16.00;1.00;;;;;;5007543;28;20526;-76
2023/08/28 01:30:29;;;;;;;7.40;4.17;;;16.10;1.00;;;;;;5009259;28;21014;-76
2023/08/28 01:32:54;;;;;;;5.10;3.20;;;16.00;1.00;;;;;;5008131;28;20445;-74
2023/08/28 01:35:24;;;;;;;7.20;3.63;;;16.10;1.00;;;;;;5007640;28;20244;-75
2023/08/28 01:38:15;;;;;;;5.10;3.30;;;16.10;1.00;;;;;;5008867;28;20581;-74
2023/08/28 01:40:58;;;;;;;5.27;3.20;;;16.10;1.00;;;;;;5002565;28;20433;-75
2023/08/28 01:43:28;;;;;;;5.10;3.10;;;16.10;1.00;;;;;;5006478;28;20815;-75
2023/08/28 01:45:54;;;;;;;7.47;3.57;;;;;;;;;;5008556;28;20477;-75
2023/08/28 01:48:20;;;;;;;7.83;3.60;;;16.10;1.00;;;;;;5006329;28;20437;-78
2023/08/28 01:50:46;;;;;;;4.80;3.20;;;16.10;1.00;;;;;;5009036;28;20438;-75
2023/08/28 01:53:12;;;;;;;6.97;3.40;;;16.10;1.00;;;;;;5011500;28;20470;-74
2023/08/28 01:55:56;;;;;;;4.63;3.20;;;;;;;;;;5008777;28;20294;-73
2023/08/28 01:58:22;;;;;;;5.00;3.23;;;16.00;1.00;;;;;;5008738;28;20490;-74
2023/08/28 02:00:47;;;;;;;4.23;2.77;;;16.00;1.00;;;;;;5008843;28;20525;-75
2023/08/28 02:03:13;;;;;;;5.10;2.97;;;16.00;1.00;;;;;;5008067;28;20204;-77
2023/08/28 02:05:39;;;;;;;7.13;2.90;;;;;;;;;;5007458;28;20202;-74
2023/08/28 02:08:05;;;;;;;4.20;2.70;;;16.10;1.00;;;;;;5008831;28;20178;-75
2023/08/28 02:10:31;;;;;;;5.70;2.97;;;;;;;;;;5007814;28;20506;-75
2023/08/28 02:12:57;;;;;;;6.77;2.93;;;;;;;;;;5006785;28;20527;-75
2023/08/28 02:15:22;;;;;;;2.93;2.63;;;16.10;1.00;;;;;;5009045;28;20618;-75
2023/08/28 02:17:48;;;;;;;6.80;3.30;;;16.10;1.00;;;;;;5008205;28;20469;-77
2023/08/28 02:20:13;;;;;;;7.10;3.27;;;16.10;1.00;;;;;;5006913;28;20650;-75
2023/08/28 02:22:39;;;;;;;9.23;3.20;;;16.10;1.00;;;;;;5008058;28;20260;-75
2023/08/28 02:25:05;;;;;;;3.47;3.17;;;16.00;1.00;;;;;;5007862;28;20194;-75
2023/08/28 02:27:31;;;;;;;9.93;3.40;;;16.00;1.00;;;;;;5008045;28;20278;-75
2023/08/28 02:29:56;;;;;;;7.20;3.80;;;16.00;1.00;;;;;;5008011;28;20445;-75
2023/08/28 02:32:23;;;;;;;7.90;3.67;;;16.00;1.00;;;;;;5007001;28;20535;-75
2023/08/28 02:34:49;;;;;;;5.80;3.83;;;16.00;1.00;;;;;;5007226;28;20192;-75
2023/08/28 02:37:14;;;;;;;8.80;4.80;;;16.00;1.00;;;;;;5006486;28;21030;-74
2023/08/28 02:39:40;;;;;;;5.67;4.30;;;16.00;1.00;;;;;;5001510;28;20194;-75
2023/08/28 02:42:05;;;;;;;6.67;4.80;;;16.10;1.00;;;;;;5006868;28;20194;-74
2023/08/28 02:44:31;;;;;;;9.87;4.70;;;16.20;1.00;;;;;;5007440;28;20281;-75
2023/08/28 02:46:57;;;;;;;8.90;4.07;;;16.10;1.00;;;;;;5006840;28;20218;-76
2023/08/28 02:49:22;;;;;;;9.50;4.47;;;16.20;1.00;;;;;;5005829;28;20726;-74
2023/08/28 02:51:48;;;;;;;6.03;3.80;;;16.20;1.00;;;;;;5008608;28;20736;-76
2023/08/28 02:54:14;;;;;;;4.70;3.53;;;;;;;;;;5011439;28;20193;-75
2023/08/28 02:56:40;;;;;;;4.27;3.17;;;16.10;1.00;;;;;;5005571;28;20468;-75
2023/08/28 02:59:06;;;;;;;5.00;3.30;;;16.10;1.00;;;;;;5007821;28;20433;-75
2023/08/28 03:01:34;;;;;;;4.53;2.93;;;16.00;1.00;;;;;;5006501;28;20444;-77
2023/08/28 03:04:06;;;;;;;6.50;3.30;;;15.90;1.00;;;;;;5007118;28;20274;-75
2023/08/28 03:06:36;;;;;;;4.70;3.00;;;16.20;1.00;;;;;;5008052;28;20475;-78
2023/08/28 03:09:02;;;;;;;6.33;3.30;;;15.80;1.00;;;;;;5006776;28;20441;-75
2023/08/28 03:11:28;;;;;;;5.40;3.50;;;15.70;1.00;;;;;;5007521;28;20528;-76
2023/08/28 03:13:54;;;;;;;5.70;3.73;;;;;;;;;;5006696;28;20592;-74
2023/08/28 03:16:19;;;;;;;4.30;2.90;;;15.70;1.00;;;;;;5008051;28;20284;-72
2023/08/28 03:18:45;;;;;;;5.47;3.43;;;;;;;;;;5005881;28;20417;-75
2023/08/28 03:21:11;;;;;;;5.53;3.73;;;15.70;1.00;;;;;;5005622;28;20206;-75
2023/08/28 03:23:37;;;;;;;5.03;3.73;;;;;;;;;;5010685;28;20201;-74
2023/08/28 03:26:02;;;;;;;10.57;4.17;;;15.60;1.00;;;;;;5010726;28;20214;-75
2023/08/28 03:28:28;;;;;;;5.53;3.50;;;;;;;;;;5009975;28;20244;-75
2023/08/28 03:30:58;;;;;;;7.80;3.90;;;15.60;1.00;;;;;;5011478;28;20190;-75
2023/08/28 03:33:24;;;;;;;4.20;3.60;;;;;;;;;;5010870;28;20445;-74
2023/08/28 03:35:50;;;;;;;8.03;3.80;;;15.60;1.00;;;;;;5010902;28;20796;-75
2023/08/28 03:38:16;;;;;;;4.80;3.90;;;15.50;1.00;;;;;;5011268;28;20455;-74
2023/08/28 03:40:44;;;;;;;6.07;4.00;;;15.60;1.00;;;;;;5010707;28;20202;-75
2023/08/28 03:43:10;;;;;;;4.13;3.50;;;15.70;1.00;;;;;;5010327;28;20704;-75
2023/08/28 03:45:36;;;;;;;5.17;4.00;;;;;;;;;;5009949;28;21098;-75
2023/08/28 03:48:01;;;;;;;10.47;4.20;;;15.80;1.00;;;;;;5009983;28;20552;-74
2023/08/28 03:50:30;;;;;;;7.70;3.90;;;15.80;1.00;;;;;;5010198;28;20213;-76
2023/08/28 03:52:56;;;;;;;7.17;4.00;;;15.80;1.00;;;;;;5011874;28;20236;-75
2023/08/28 03:55:22;;;;;;;7.53;3.87;;;15.80;1.00;;;;;;5013770;28;20437;-77
2023/08/28 03:57:48;;;;;;;4.40;3.90;;;15.70;1.00;;;;;;5010671;28;20457;-77
2023/08/28 04:00:14;;;;;;;9.20;5.37;;;15.70;1.00;;;;;;5008312;28;20434;-75
2023/08/28 04:02:41;;;;;;;9.83;3.87;;;15.70;1.00;;;;;;5010207;28;20189;-75
2023/08/28 04:05:07;;;;;;;5.23;3.80;;;15.70;1.00;;;;;;5007469;28;20490;-75
2023/08/28 04:07:33;;;;;;;7.20;4.47;;;15.70;1.00;;;;;;5009062;28;21001;-74
2023/08/28 04:09:59;;;;;;;4.87;3.90;;;;;;;;;;5009202;28;20793;-75
2023/08/28 04:12:25;;;;;;;5.03;4.10;;;;;;;;;;5010579;28;20429;-74
2023/08/28 04:14:51;;;;;;;5.80;3.97;;;15.70;1.00;;;;;;5012246;28;20440;-75
2023/08/28 04:17:17;;;;;;;6.13;4.17;;;15.60;1.00;;;;;;5010682;28;20469;-74
2023/08/28 04:19:43;;;;;;;6.83;4.30;;;15.50;1.00;;;;;;5010132;28;20194;-75
2023/08/28 04:22:08;;;;;;;6.87;3.63;;;15.50;1.00;;;;;;5009598;28;20273;-75
2023/08/28 04:24:34;;;;;;;5.63;4.10;;;;;;;;;;5012810;28;20600;-75
2023/08/28 04:27:00;;;;;;;5.57;4.00;;;15.40;1.00;;;;;;5010778;28;20229;-74
2023/08/28 04:29:26;;;;;;;7.80;4.00;;;;;;;;;;5010024;28;20187;-77
2023/08/28 04:31:52;;;;;;;5.50;4.17;;;15.50;1.00;;;;;;5010918;28;20186;-74
2023/08/28 04:34:18;;;;;;;5.03;3.93;;;15.50;1.00;;;;;;5009359;28;20179;-73
2023/08/28 04:36:44;;;;;;;4.43;3.67;;;15.60;1.00;;;;;;5010083;28;20472;-75
2023/08/28 04:39:09;;;;;;;7.30;3.80;;;15.50;1.00;;;;;;5010738;28;20194;-75
2023/08/28 04:41:35;;;;;;;5.00;4.00;;;15.50;1.00;;;;;;5006209;28;20187;-75
2023/08/28 04:44:01;;;;;;;5.70;4.20;;;;;;;;;;5009280;28;20209;-75
2023/08/28 04:46:28;;;;;;;8.77;3.80;;;15.50;1.00;;;;;;5010800;28;20210;-74
2023/08/28 04:48:53;;;;;;;6.10;3.70;;;15.70;1.00;;;;;;5008093;28;20441;-75
2023/08/28 04:51:19;;;;;;;6.00;3.60;;;15.60;1.00;;;;;;5005930;28;20448;-75
2023/08/28 04:53:45;;;;;;;3.63;3.10;;;15.60;1.00;;;;;;5010288;28;20194;-76
2023/08/28 04:56:11;;;;;;;3.93;3.37;;;;;;;;;;5011044;28;20461;-74
2023/08/28 04:58:37;;;;;;;4.87;3.40;;;15.50;1.00;;;;;;5007495;28;20303;-72
2023/08/28 05:01:02;;;;;;;5.37;3.70;;;15.80;1.00;;;;;;5007954;28;20441;-74
2023/08/28 05:03:28;;;;;;;5.03;3.80;;;;;;;;;;5009633;28;20332;-75
2023/08/28 05:05:54;;;;;;;6.00;3.80;;;15.60;1.00;;;;;;5009081;28;20210;-75
2023/08/28 05:08:20;;;;;;;6.73;3.60;;;15.60;1.00;;;;;;5005220;28;21484;-75
2023/08/28 05:10:45;;;;;;;5.73;3.60;;;15.60;1.00;;;;;;5009231;28;20696;-76
2023/08/28 05:13:11;;;;;;;4.60;4.10;;;;;;;;;;5007646;28;20262;-74
2023/08/28 05:15:37;;;;;;;6.07;3.57;;;15.50;1.00;;;;;;5007361;28;20257;-75
2023/08/28 05:18:03;;;;;;;14.23;4.30;;;15.50;1.00;;;;;;5004995;28;20222;-76
2023/08/28 05:20:29;;;;;;;4.70;4.13;;;;;;;;;;5007596;28;20209;-75
2023/08/28 05:22:55;;;;;;;4.93;3.80;;;15.60;1.00;;;;;;5008259;28;20931;-75
2023/08/28 05:25:21;;;;;;;5.97;4.00;;;;;;;;;;5008818;28;20496;-76
2023/08/28 05:27:46;;;;;;;3.43;3.13;;;15.70;1.00;;;;;;5009843;28;20284;-76
2023/08/28 05:30:12;;;;;;;4.37;3.10;;;15.70;1.00;;;;;;5007845;28;20488;-75
2023/08/28 05:32:38;;;;;;;6.40;3.43;;;15.70;1.00;;;;;;5009245;28;20184;-75
2023/08/28 05:35:05;;;;;;;5.47;3.50;;;15.80;1.00;;;;;;5011394;28;20540;-75
2023/08/28 05:37:31;;;;;;;5.10;3.77;;;15.70;1.00;;;;;;5011733;28;20202;-75
2023/08/28 05:39:56;;;;;;;4.87;3.07;;;17.00;1.00;;;;;;5011227;28;20433;-77
2023/08/28 05:42:22;;;;;;;9.17;3.23;;;15.80;1.00;;;;;;5006248;28;20191;-74
2023/08/28 05:44:47;;;;;;;4.73;2.90;;;15.80;1.00;;;;;;5010936;28;20277;-75
2023/08/28 05:47:13;;;;;;;5.60;3.17;;;15.90;1.00;;;;;;5009971;28;20210;-75
2023/08/28 05:49:38;;;;;;;7.07;3.47;;;15.90;1.00;;;;;;5015927;28;20186;-75
2023/08/28 05:52:04;;;;;;;5.70;3.30;;;15.90;1.00;;;;;;5011145;28;20182;-74
2023/08/28 05:54:30;;;;;;;6.07;3.80;;;15.90;1.00;;;;;;5016396;28;20183;-75
2023/08/28 05:56:55;;;;;;;6.43;3.40;;;15.90;1.00;;;;;;5006434;28;20218;-74
2023/08/28 05:59:21;;;;;;;5.57;3.43;;;15.90;1.00;;;;;;5010949;28;20205;-74
2023/08/28 06:01:46;;;;;;;5.37;3.63;;;17.10;1.00;;;;;;5006169;28;20273;-74
2023/08/28 06:04:12;;;;;;;6.97;3.70;;;15.90;1.00;;;;;;5003286;28;20255;-76
2023/08/28 06:06:41;;;;;;;10.23;3.73;;;16.00;1.00;;;;;;5005562;28;20297;-74
2023/08/28 06:09:07;;;;;;;3.80;3.40;;;16.00;1.00;;;;;;5007938;28;20265;-75
2023/08/28 06:11:33;;;;;;;4.73;3.10;;;16.00;1.00;;;;;;5008290;28;20496;-76
2023/08/28 06:14:00;;;;;;;4.80;3.07;;;16.00;1.00;;;;;;5007004;28;20834;-72
2023/08/28 06:16:26;;;;;;;5.73;3.37;;;16.50;1.00;;;;;;5072836;23;20487;-71
2023/08/28 06:18:51;;;;;;;6.30;3.10;;;16.10;1.00;;;;;;5043660;28;20457;-73
2023/08/28 06:21:17;;;;;;;4.00;3.00;;;16.10;1.00;;;;;;5045948;28;20173;-74
2023/08/28 06:23:43;;;;;;;4.33;3.00;;;16.30;1.00;;;;;;5048022;28;20594;-74
2023/08/28 06:26:08;;;;;;;8.30;3.27;;;16.30;1.00;;;;;;5047007;28;20289;-74
2023/08/28 06:28:34;;;;;;;4.90;2.80;;;16.50;1.00;;;;;;5046048;28;20173;-73
2023/08/28 06:31:01;;;;;;;3.53;3.10;;;16.30;1.00;;;;;;5046331;28;20647;-74
2023/08/28 06:33:27;;;;;;;6.53;3.13;;;16.30;1.00;;;;;;5046300;28;20268;-74
2023/08/28 06:35:53;;;;;;;7.90;3.63;;;16.30;1.00;;;;;;5042504;28;21048;-74
2023/08/28 06:38:19;;;;;;;6.37;4.00;;;16.50;1.00;;;;;;5046556;28;20192;-74
2023/08/28 06:40:53;;;;;;;7.83;3.50;;;16.30;1.00;;;;;;5045498;28;20538;-74
2023/08/28 06:43:19;;;;;;;7.07;3.33;;;16.60;1.00;;;;;;5046084;28;20194;-73
2023/08/28 06:45:47;;;;;;;7.80;3.67;;;16.50;1.00;;;;;;5011322;28;21088;-74
2023/08/28 06:48:13;;;;;;;5.77;3.77;;;16.50;1.00;;;;;;5034576;28;20189;-70
2023/08/28 06:50:42;;;;;;;8.80;4.20;;;16.50;1.00;;;;;;5038823;28;20435;-78
2023/08/28 06:53:07;;;;;;;6.77;3.60;;;16.40;1.00;;;;;;5036922;28;20189;-72
2023/08/28 06:55:36;;;;;;;6.90;3.83;;;16.50;1.00;;;;;;5042046;28;20523;-74
2023/08/28 06:58:01;;;;;;;6.63;3.50;;;16.60;1.00;;;;;;5042247;28;20173;-73
2023/08/28 07:00:28;;;;;;;6.33;3.33;;;16.70;1.00;;;;;;5045872;28;20446;-73
2023/08/28 07:02:54;;;;;;;11.93;3.87;;;16.70;1.00;;;;;;5046985;28;20449;-75
2023/08/28 07:05:21;;;;;;;6.03;3.67;;;17.40;1.00;;;;;;5045996;28;20174;-73
2023/08/28 07:07:47;;;;;;;5.37;3.73;;;16.70;1.00;;;;;;5047744;28;20922;-73
2023/08/28 07:10:12;;;;;;;6.23;3.43;;;16.70;1.00;;;;;;5048613;28;20432;-73
2023/08/28 07:12:38;;;;;;;5.90;4.10;;;16.80;1.00;;;;;;5043506;28;20193;-74
2023/08/28 07:15:29;;;;;;;6.90;3.00;;;16.80;1.00;;;;;;5042201;28;20277;-73
2023/08/28 07:17:54;;;;;;;6.33;3.57;;;16.80;1.00;;;;;;5044815;28;20201;-77
2023/08/28 07:20:22;;;;;;;7.37;3.40;;;16.90;1.00;;;;;;5045214;28;20501;-72
2023/08/28 07:22:47;;;;;;;9.17;3.17;;;17.00;1.00;;;;;;5050024;28;20646;-73
2023/08/28 07:25:15;;;;;;;5.40;3.23;;;17.10;1.00;;;;;;5049910;28;20530;-73
2023/08/28 07:27:40;;;;;;;6.97;3.13;;;17.10;1.00;;;;;;5049943;28;20197;-75
2023/08/28 07:30:07;;;;;;;12.53;3.40;;;17.30;1.00;;;;;;5049176;28;20427;-74
2023/08/28 07:32:32;;;;;;;6.13;3.43;;;17.40;1.00;;;;;;5044507;28;20177;-75
2023/08/28 07:35:00;;;;;;;5.80;3.30;;;17.60;1.00;;;;;;5049710;28;20438;-73
2023/08/28 07:37:29;;;;;;;6.47;3.60;;;17.70;1.00;;;;;;5045538;28;20208;-74
2023/08/28 07:39:54;;;;;;;5.33;3.67;;;17.70;1.00;;;;;;5046104;28;20961;-75
2023/08/28 07:42:20;;;;;;;9.23;3.57;;;17.70;1.00;;;;;;5048355;28;20526;-74
2023/08/28 07:44:46;;;;;;;10.50;4.57;;;17.80;1.00;;;;;;5047358;28;20196;-72
2023/08/28 07:47:12;;;;;;;6.73;4.10;;;17.90;1.00;;;;;;5046642;28;20205;-74
2023/08/28 07:49:38;;;;;;;10.10;3.80;;;17.90;1.00;;;;;;5044487;28;20509;-73
2023/08/28 07:52:04;;;;;;;10.90;4.77;;;19.30;1.00;;;;;;5048208;28;20198;-73
2023/08/28 07:54:30;;;;;;;9.50;5.07;;;17.90;1.00;;;;;;5050362;28;20226;-73
2023/08/28 07:56:55;;;;;;;9.00;4.60;;;17.80;1.00;;;;;;5048906;28;20205;-73
2023/08/28 07:59:21;;;;;;;12.90;4.90;;;17.80;1.00;;;;;;5046334;28;20288;-73
2023/08/28 08:01:46;;;;;;;9.17;4.20;;;17.90;1.00;;;;;;5048478;28;20455;-75
2023/08/28 08:04:12;;;;;;;8.73;4.20;;;17.90;1.00;;;;;;5045334;28;20627;-75
2023/08/28 08:06:38;;;;;;;8.77;4.57;;;18.10;1.00;;;;;;5048807;28;20354;-74
2023/08/28 08:09:04;;;;;;;8.00;4.70;;;18.20;1.00;;;;;;5046466;28;20428;-73
2023/08/28 08:11:29;;;;;;;7.03;4.13;;;18.20;1.00;;;;;;5048171;28;20450;-76
2023/08/28 08:13:55;;;;;;;7.60;4.90;;;18.30;1.00;;;;;;5046909;28;20173;-72
2023/08/28 08:16:20;;;;;;;6.60;4.10;;;18.30;1.00;;;;;;5049169;28;20209;-71
2023/08/28 08:18:46;;;;;;;10.53;4.00;;;18.40;1.00;;;;;;5045766;28;20664;-74
2023/08/28 08:21:11;;;;;;;7.90;4.10;;;18.50;1.00;;;;;;5047774;28;20188;-73
2023/08/28 08:23:37;;;;;;;6.23;4.10;;;18.50;1.00;;;;;;5049301;28;20188;-73
2023/08/28 08:26:03;;;;;;;9.90;4.30;;;18.60;1.00;;;;;;5047782;28;20212;-75
2023/08/28 08:28:30;;;;;;;7.30;3.80;;;18.50;1.00;;;;;;5048117;28;20181;-73
2023/08/28 08:30:55;;;;;;;6.87;4.20;;;18.40;1.00;;;;;;5047437;28;20436;-73
2023/08/28 08:33:21;;;;;;;10.10;4.30;;;18.40;1.00;;;;;;5049583;28;20449;-73
2023/08/28 08:35:46;;;;;;;10.63;4.10;;;18.40;1.00;;;;;;5048863;28;20208;-74
2023/08/28 08:38:12;;;;;;;11.70;4.50;;;18.50;1.00;;;;;;5048616;28;20235;-73
2023/08/28 08:40:40;;;;;;;7.07;4.20;;;18.40;1.00;;;;;;5048530;28;20189;-76
2023/08/28 08:43:06;;;;;;;6.20;4.20;;;18.30;1.00;;;;;;5048780;28;20181;-73
2023/08/28 08:45:37;;;;;;;7.10;4.50;;;18.20;1.00;;;;;;5047260;28;20953;-73
2023/08/28 08:48:05;;;;;;;6.43;4.00;;;18.20;1.00;;;;;;5044595;28;20189;-73
2023/08/28 08:50:34;;;;;;;8.00;4.27;;;18.20;1.00;;;;;;5049624;28;20832;-72
2023/08/28 08:53:05;;;;;;;8.80;4.60;;;18.20;1.00;;;;;;5048155;28;20443;-75
2023/08/28 08:55:44;;;;;;;10.13;4.30;;;18.10;1.00;;;;;;5043014;28;20428;-72
2023/08/28 08:58:12;;;;;;;9.93;4.23;;;18.10;1.00;;;;;;5047635;28;20446;-73
2023/08/28 09:00:39;;;;;;;10.40;4.37;;;18.00;1.00;;;;;;5043884;28;20440;-73
2023/08/28 09:03:08;;;;;;;6.90;4.23;;;18.00;1.00;;;;;;5047742;28;20446;-74
2023/08/28 09:05:36;;;;;;;5.77;4.00;;;18.20;1.00;;;;;;5048814;28;20452;-72
2023/08/28 09:08:05;;;;;;;8.37;3.63;;;18.20;1.00;;;;;;5044289;28;20441;-73
2023/08/28 09:10:31;;;;;;;5.07;3.80;;;18.20;1.00;;;;;;5045979;28;20486;-73
2023/08/28 09:12:56;;;;;;;5.60;3.90;;;18.30;1.00;;;;;;5046484;28;20542;-75
2023/08/28 09:15:23;;;;;;;7.23;3.87;;;18.40;1.00;;;;;;5047503;28;20512;-73
2023/08/28 09:17:49;;;;;;;7.17;3.80;;;18.50;1.00;;;;;;5048050;28;20243;-73
2023/08/28 09:20:19;;;;;;;5.47;3.53;;;18.70;1.00;;;;;;5046134;28;20448;-73
2023/08/28 09:22:53;;;;;;;5.23;4.00;;;18.70;1.00;;;;;;5047012;28;20559;-73
2023/08/28 09:25:21;;;;;;;7.67;4.40;;;18.70;1.00;;;;;;5048710;28;20444;-73
2023/08/28 09:27:48;;;;;;;6.90;3.80;;;19.10;1.00;;;;;;5047114;28;21162;-74
2023/08/28 09:30:36;;;;;;;5.50;4.00;;;18.90;1.00;;;;;;5045905;28;20447;-72
2023/08/28 09:33:04;;;;;;;6.60;4.10;;;19.00;1.00;;;;;;5061179;28;20440;-74
2023/08/28 09:35:38;;;;;;;10.10;3.90;;;19.20;1.00;;;;;;5047574;28;20459;-72
2023/08/28 09:38:04;;;;;;;9.90;3.83;;;19.20;1.00;;;;;;5045926;28;20822;-72
2023/08/28 09:40:31;;;;;;;8.27;3.73;;;19.30;1.00;;;;;;5046656;28;20485;-72
2023/08/28 09:43:15;;;;;;;9.73;3.93;;;19.30;1.00;;;;;;5044923;28;20608;-72
2023/08/28 09:45:41;;;;;;;9.63;4.20;;;19.80;1.00;;;;;;5047060;28;20432;-72
2023/08/28 09:48:08;;;;;;;6.83;3.80;;;19.80;1.00;;;;;;5036143;28;20433;-72
2023/08/28 09:50:37;;;;;;;4.77;3.77;;;20.10;1.00;;;;;;5045009;28;20547;-72
2023/08/28 09:53:14;;;;;;;11.03;4.20;;;20.30;1.00;;;;;;5044157;28;20436;-72
2023/08/28 09:55:48;;;;;;;9.73;3.70;;;20.70;1.00;;;;;;5042435;28;20467;-73
2023/08/28 09:58:14;;;;;;;8.10;3.80;;;20.70;1.00;;;;;;5042962;28;20526;-73
2023/08/28 10:00:40;;;;;;;6.50;3.60;;;21.00;1.00;;;;;;5038849;28;20475;-74
2023/08/28 10:03:13;;;;;;;7.30;4.47;;;21.10;1.00;;;;;;5042971;28;22469;-74
2023/08/28 10:05:41;;;;;;;6.87;4.43;;;21.30;1.00;;;;;;5044073;28;20485;-74
2023/08/28 10:08:08;;;;;;;8.93;4.07;;;21.30;1.00;;;;;;5044315;28;20481;-72
2023/08/28 10:10:35;;;;;;;6.67;3.97;;;21.40;1.00;;;;;;5046697;28;20953;-72
2023/08/28 10:13:13;;;;;;;6.50;3.90;;;21.50;1.00;;;;;;5045682;28;20538;-72
2023/08/28 10:16:06;;;;;;;8.17;4.10;;;21.40;1.00;;;;;;5045058;28;20457;-72
2023/08/28 10:18:36;;;;;;;6.77;4.00;;;21.40;1.00;;;;;;5037854;28;20498;-72
2023/08/28 10:21:02;;;;;;;6.33;4.20;;;21.60;1.00;;;;;;5042017;28;20554;-73
2023/08/28 10:23:28;;;;;;;11.70;4.03;;;21.50;1.00;;;;;;5053470;28;20466;-72
2023/08/28 10:25:54;;;;;;;9.50;4.40;;;21.60;1.00;;;;;;5045887;28;20465;-72
2023/08/28 10:28:21;;;;;;;7.60;3.87;;;21.80;1.00;;;;;;5043576;28;20468;-73
2023/08/28 10:30:50;;;;;;;6.73;4.13;;;21.90;1.00;;;;;;5045355;28;20423;-73
2023/08/28 10:33:18;;;;;;;7.80;4.23;;;21.90;1.00;;;;;;5044605;28;20437;-73
2023/08/28 10:35:47;;;;;;;6.40;4.73;;;22.20;1.00;;;;;;5043713;28;20434;-71
2023/08/28 10:38:13;;;;;;;7.20;4.60;;;22.20;1.00;;;;;;5044087;28;20794;-73
2023/08/28 10:40:39;;;;;;;15.93;6.63;;;22.50;1.00;;;;;;5044232;28;20428;-73
2023/08/28 10:43:06;;;;;;;12.60;6.30;;;22.40;1.00;;;;;;5044681;28;20438;-73
2023/08/28 10:45:37;;;;;;;9.67;5.23;;;22.80;1.00;;;;;;5043377;28;20431;-72
2023/08/28 10:48:03;;;;;;;7.10;4.33;;;22.80;1.00;;;;;;5036498;28;20451;-72
2023/08/28 10:50:36;;;;;;;11.53;4.60;;;23.20;1.00;;;;;;5044988;28;20446;-73
2023/08/28 10:53:03;;;;;;;7.00;4.30;;;23.50;1.00;;;;;;5039090;28;20189;-73
2023/08/28 10:55:29;;;;;;;7.27;4.10;;;23.70;1.00;;;;;;5030137;28;20432;-73
2023/08/28 10:57:54;;;;;;;7.70;4.83;;;23.60;1.00;;;;;;5026183;28;20509;-72
2023/08/28 11:00:22;;;;;;;10.77;4.60;;;23.90;1.00;;;;;;5025953;28;20300;-72
2023/08/28 11:03:08;;;;;;;6.63;4.37;;;24.20;1.00;;;;;;5028648;28;20263;-72
2023/08/28 11:05:34;;;;;;;6.60;3.83;;;24.70;1.00;;;;;;5025713;28;20436;-73
2023/08/28 11:08:11;;;;;;;9.20;3.60;;;24.70;1.00;;;;;;5028745;28;20452;-73
2023/08/28 11:10:39;;;;;;;6.13;3.90;;;25.20;1.00;;;;;;5020473;28;20439;-73
2023/08/28 11:13:06;;;;;;;4.83;3.37;;;25.40;1.00;;;;;;5029753;28;20442;-74
2023/08/28 11:15:39;;;;;;;7.33;4.00;;;26.40;1.00;;;;;;5027812;28;20834;-74
2023/08/28 11:18:30;;;;;;;6.50;4.00;;;26.40;1.00;;;;;;5042161;28;20432;-73
2023/08/28 11:20:59;;;;;;;7.33;3.83;;;26.60;1.00;;;;;;5025619;28;20440;-73
2023/08/28 11:23:33;;;;;;;5.33;3.70;;;26.80;1.00;;;;;;5026367;28;21046;-73
2023/08/28 11:26:03;;;;;;;5.37;4.07;;;26.70;1.00;;;;;;5028550;28;20830;-72
2023/08/28 11:28:32;;;;;;;5.10;3.70;;;26.10;1.00;;;;;;5027118;28;20447;-73
2023/08/28 11:31:04;;;;;;;5.07;3.93;;;26.00;1.00;;;;;;5029270;28;20448;-72
2023/08/28 11:33:44;;;;;;;5.83;3.77;;;26.10;1.00;;;;;;5026761;28;21000;-72
2023/08/28 11:36:14;;;;;;;11.67;3.70;;;25.90;1.00;;;;;;5027877;28;20473;-72
2023/08/28 11:38:40;;;;;;;4.53;2.80;;;25.90;1.00;;;;;;5028367;28;20443;-72
2023/08/28 11:41:08;;;;;;;4.83;2.80;;;26.00;1.00;;;;;;5029071;28;20555;-72
2023/08/28 11:43:39;;;;;;;5.70;2.80;;;26.20;1.00;;;;;;5027050;28;20442;-72
2023/08/28 11:46:05;;;;;;;5.13;2.47;;;26.10;1.00;;;;;;5021084;28;20468;-73
2023/08/28 11:48:34;;;;;;;3.87;2.60;;;26.00;1.00;;;;;;5024726;28;20436;-74
2023/08/28 11:51:01;;;;;;;4.23;2.47;;;26.30;1.00;;;;;;5028648;28;20213;-75
2023/08/28 11:53:40;;;;;;;6.73;2.37;;;26.80;1.00;;;;;;5028782;28;20451;-73
2023/08/28 11:56:07;;;;;;;4.50;2.00;;;27.70;1.00;;;;;;5027132;28;20474;-73
2023/08/28 11:58:34;;;;;;;4.47;2.20;;;28.30;1.00;;;;;;5027474;28;21138;-73
2023/08/28 12:01:05;;;;;;;7.07;2.00;;;28.20;1.00;;;;;;5027000;28;20525;-73
2023/08/28 12:03:31;;;;;;;3.20;1.80;;;28.10;1.00;;;;;;5025628;28;20393;-72
2023/08/28 12:06:01;;;;;;;3.33;2.17;;;27.90;1.00;;;;;;5025721;28;20695;-77
2023/08/28 12:08:26;;;;;;;3.67;2.20;;;27.50;1.00;;;;;;5025730;28;20527;-73
2023/08/28 12:10:52;;;;;;;4.90;1.90;;;27.30;1.00;;;;;;5025002;28;20523;-74
2023/08/28 12:13:19;;;;;;;4.07;2.00;;;27.00;1.00;;;;;;5024700;28;20709;-74
2023/08/28 12:15:45;;;;;;;5.03;2.10;;;26.40;1.00;;;;;;5026485;28;20279;-72
2023/08/28 12:18:10;;;;;;;5.40;2.20;;;26.30;1.00;;;;;;5026746;28;20997;-77
2023/08/28 12:20:37;;;;;;;2.67;1.80;;;26.10;1.00;;;;;;5026114;28;20177;-72
2023/08/28 12:23:03;;;;;;;3.50;1.90;;;25.80;1.00;;;;;;5020734;28;20241;-72
2023/08/28 12:25:34;;;;;;;3.57;1.93;;;25.70;1.00;;;;;;5026013;28;20472;-74
2023/08/28 12:28:07;;;;;;;2.87;1.90;;;25.70;1.00;;;;;;5027268;28;20192;-72
2023/08/28 12:30:33;;;;;;;6.37;2.40;;;25.40;1.00;;;;;;5026158;28;20455;-73
2023/08/28 12:33:00;;;;;;;3.40;1.90;;;25.00;1.00;;;;;;5023783;28;20992;-73
2023/08/28 12:35:27;;;;;;;4.43;1.97;;;;;;;;;;5023653;28;20760;-73
2023/08/28 12:37:53;;;;;;;5.10;2.47;;;24.60;1.00;;;;;;5027576;28;20934;-72
2023/08/28 12:40:19;;;;;;;3.30;2.10;;;24.60;1.00;;;;;;5025530;28;20487;-72
2023/08/28 12:42:44;;;;;;;3.57;1.80;;;24.20;1.00;;;;;;5025216;28;20495;-71
2023/08/28 12:45:10;;;;;;;2.60;1.60;;;23.60;1.00;;;;;;5022959;28;20203;-72
2023/08/28 12:47:40;;;;;;;3.33;1.70;;;23.40;1.00;;;;;;5022965;28;20198;-73
2023/08/28 12:50:06;;;;;;;3.30;1.70;;;23.10;1.00;;;;;;5027051;28;20467;-74
2023/08/28 12:52:32;;;;;;;4.27;1.77;;;22.90;1.00;;;;;;5026670;28;20443;-74
2023/08/28 12:54:59;;;;;;;3.20;2.03;;;23.10;1.00;;;;;;5028465;28;20430;-72
2023/08/28 12:57:24;;;;;;;5.57;1.67;;;23.00;1.00;;;;;;5025576;28;20207;-72
2023/08/28 12:59:50;;;;;;;3.70;1.63;;;22.90;1.00;;;;;;5025982;28;21009;-73
2023/08/28 13:02:15;;;;;;;2.73;1.70;;;22.90;1.00;;;;;;5025767;28;20267;-72
2023/08/28 13:04:43;;;;;;;2.90;1.80;;;23.00;1.00;;;;;;5025743;28;20189;-73
2023/08/28 13:07:08;;;;;;;4.50;1.60;;;23.30;1.00;;;;;;5026991;28;20200;-73